Bulk Norway — 9HA2862 — position and weather

sailwx.info

Track history (hours):
 
Tides and Currents Weather Stations Pressure Air Temp Water Temp Dewpoint Dewpoint Depression Visibility Wind Speed Wind Dir Waves Ship Positions

Bulk Norway

Last reported at 2017-May-25 12:30 UTC. Time now 2017-May-25 12:36 UTC.
Position S 19°53' E 118°27'.

Length 292 m; draft 8.8 m.

Type: Cargo ship. MMSI: 256456000.

Date/timePositionNaut miles runAvg speedWind from/ knotsBaromVisibWave heightAir tempDewpointWater temp
2017-May-25 12:30S 19°53' E 118°27'813.2
2017-May-25 11:56S 19°45' E 118°25'2613.1
2017-May-25 09:57S 19°20' E 118°19'512.5
2017-May-25 09:31S 19°15' E 118°17'612.3
2017-May-25 09:00S 19°09' E 118°15'612.1
2017-May-25 08:30S 19°03' E 118°14'611.8
2017-May-25 08:00S 18°57' E 118°13'611.6
2017-May-25 07:30S 18°52' E 118°12'611.2
2017-May-25 07:00S 18°46' E 118°10'12411.8
2017-May-24 20:29S 16°45' E 117°40'511.0
2017-May-24 20:00S 16°40' E 117°39'5511.7
2017-May-24 15:19S 15°47' E 117°25'411.6
2017-May-24 14:57S 15°43' E 117°24'511.5
2017-May-24 14:30S 15°38' E 117°23'  
Track history (hours):
 
Tides and Currents Weather Stations Pressure Air Temp Water Temp Dewpoint Dewpoint Depression Visibility Wind Speed Wind Dir Waves Ship Positions

Bulk Norway

Last reported at 2017-May-25 12:30 UTC. Time now 2017-May-25 12:36 UTC.
Position S 19°53' E 118°27'.

Length 292 m; draft 8.8 m.

Type: Cargo ship. MMSI: 256456000.

Date/timePositionNaut miles runAvg speedWind from/ knotsBaromVisibWave heightAir tempDewpointWater temp
2017-May-25 12:30S 19°53' E 118°27'813.2
2017-May-25 11:56S 19°45' E 118°25'2613.1
2017-May-25 09:57S 19°20' E 118°19'512.5
2017-May-25 09:31S 19°15' E 118°17'612.3
2017-May-25 09:00S 19°09' E 118°15'612.1
2017-May-25 08:30S 19°03' E 118°14'611.8
2017-May-25 08:00S 18°57' E 118°13'611.6
2017-May-25 07:30S 18°52' E 118°12'611.2
2017-May-25 07:00S 18°46' E 118°10'12411.8
2017-May-24 20:29S 16°45' E 117°40'511.0
2017-May-24 20:00S 16°40' E 117°39'5511.7
2017-May-24 15:19S 15°47' E 117°25'411.6
2017-May-24 14:57S 15°43' E 117°24'511.5
2017-May-24 14:30S 15°38' E 117°23'  

Dump ship's entire track history